Copeland, North Carolina
Current Conditions -  °F | °C
As of 3:35 AM on Thursday 23 Oct 2014 (Local Time) from KMWK Reporting Station
Clear Clear  
Wind Chill: 50°   Ceiling: Unl
Heat Index: 50°   Visibility: 10mi
Dew Point: 40°   Wind: 13mph
Humidity: 69%   Direction: 310°NW
Pressure: 30.07"   Gusts: 20mph
Location:  36.3461°N, 80.7011°W
Report Text: KMWK 230735Z AUTO 31011G17KT 10SM CLR 10/05 A3007 RMK AO2 T01000045
Loading
Personal Weather Stations






























Interactive Weather Map
Tropical Storm Tracking
New forecast layout! Learn more

10-Day Weather Forecast

Advertisements
Track Severe Weather on mobile